createdAt,value
2022-09-03T00:01:36.326Z,98198.00
2022-09-03T00:06:49.085Z,98197.00
2022-09-03T00:12:00.996Z,98189.00
2022-09-03T00:17:16.511Z,98194.00
2022-09-03T00:22:27.698Z,98205.00
2022-09-03T00:27:37.335Z,98196.00
2022-09-03T00:32:54.838Z,98198.00
2022-09-03T00:37:59.354Z,98196.00
2022-09-03T00:43:08.284Z,98187.00
2022-09-03T00:48:17.477Z,98182.00
2022-09-03T00:53:26.753Z,98181.00
2022-09-03T00:58:56.163Z,98166.00
2022-09-03T01:04:36.754Z,98173.00
2022-09-03T01:09:56.714Z,98170.00
2022-09-03T01:15:14.195Z,98172.00
2022-09-03T01:20:32.787Z,98181.00
2022-09-03T01:25:55.113Z,98184.00
2022-09-03T01:31:27.257Z,98183.00
2022-09-03T01:36:50.853Z,98181.00
2022-09-03T01:42:20.448Z,98190.00
2022-09-03T01:47:50.397Z,98187.00
2022-09-03T01:53:04.286Z,98174.00
2022-09-03T01:58:19.045Z,98183.00
2022-09-03T02:03:22.919Z,98176.00
2022-09-03T02:08:25.969Z,98182.00
2022-09-03T02:13:34.851Z,98182.00
2022-09-03T02:18:43.253Z,98181.00
2022-09-03T02:23:46.493Z,98175.00
2022-09-03T02:28:50.213Z,98179.00
2022-09-03T02:33:53.184Z,98177.00
2022-09-03T02:38:56.333Z,98183.00
2022-09-03T02:44:41.588Z,98179.00
2022-09-03T02:49:45.766Z,98178.00
2022-09-03T02:54:48.755Z,98171.00
2022-09-03T02:59:51.666Z,98177.00
2022-09-03T03:04:55.766Z,98172.00
2022-09-03T03:09:58.743Z,98169.00
2022-09-03T03:15:01.930Z,98161.00
2022-09-03T03:20:05.407Z,98172.00
2022-09-03T03:25:10.102Z,98168.00
2022-09-03T03:30:13.595Z,98168.00
2022-09-03T03:35:16.573Z,98171.00
2022-09-03T03:40:20.472Z,98154.00
2022-09-03T03:45:23.445Z,98156.00
2022-09-03T03:50:26.736Z,98157.00
2022-09-03T03:55:34.969Z,98154.00
2022-09-03T04:00:39.609Z,98152.00
2022-09-03T04:05:48.451Z,98152.00
2022-09-03T04:10:51.898Z,98149.00
2022-09-03T04:16:14.338Z,98147.00
2022-09-03T04:21:28.653Z,98147.00
2022-09-03T04:26:33.375Z,98145.00
2022-09-03T04:31:38.104Z,98143.00
2022-09-03T04:36:41.051Z,98147.00
2022-09-03T04:41:44.682Z,98153.00
2022-09-03T04:46:48.438Z,98152.00
2022-09-03T04:51:51.633Z,98131.00
2022-09-03T04:56:54.697Z,98139.00
2022-09-03T05:01:57.638Z,98145.00
2022-09-03T05:07:00.760Z,98146.00
2022-09-03T05:12:03.997Z,98148.00
2022-09-03T05:17:07.519Z,98157.00
2022-09-03T05:22:10.647Z,98162.00
2022-09-03T05:27:14.416Z,98155.00
2022-09-03T05:32:17.603Z,98156.00
2022-09-03T05:37:20.512Z,98158.00
2022-09-03T05:42:23.412Z,98157.00
2022-09-03T05:47:26.391Z,98162.00
2022-09-03T05:52:29.403Z,98164.00
2022-09-03T05:57:32.444Z,98165.00
2022-09-03T06:02:35.574Z,98165.00
2022-09-03T06:07:38.680Z,98170.00
2022-09-03T06:12:42.940Z,98161.00
2022-09-03T06:17:45.896Z,98175.00
2022-09-03T06:22:53.277Z,98167.00
2022-09-03T06:27:56.650Z,98163.00
2022-09-03T06:32:59.758Z,98158.00
2022-09-03T06:38:03.165Z,98164.00
2022-09-03T06:43:06.361Z,98163.00
2022-09-03T06:48:09.573Z,98164.00
2022-09-03T06:53:12.611Z,98174.00
2022-09-03T06:58:17.150Z,98167.00
2022-09-03T07:03:21.155Z,98160.00
2022-09-03T07:08:24.310Z,98150.00
2022-09-03T07:13:28.049Z,98167.00
2022-09-03T07:18:32.343Z,98159.00
2022-09-03T07:23:36.946Z,98152.00
2022-09-03T07:28:41.542Z,98156.00
2022-09-03T07:33:44.701Z,98168.00
2022-09-03T07:38:47.840Z,98153.00
2022-09-03T07:43:51.011Z,98156.00
2022-09-03T07:48:56.354Z,98147.00
2022-09-03T07:54:02.523Z,98147.00
2022-09-03T07:59:05.941Z,98158.00
2022-09-03T08:04:09.757Z,98152.00
2022-09-03T08:09:14.445Z,98161.00
2022-09-03T08:14:18.005Z,98167.00
2022-09-03T08:19:21.142Z,98171.00
2022-09-03T08:24:26.493Z,98165.00
2022-09-03T08:29:29.473Z,98161.00
2022-09-03T08:34:32.633Z,98166.00
2022-09-03T08:39:35.895Z,98168.00
2022-09-03T08:44:56.308Z,98160.00
2022-09-03T08:50:12.859Z,98168.00
2022-09-03T08:55:18.786Z,98157.00
2022-09-03T09:00:21.773Z,98163.00
2022-09-03T09:05:51.939Z,98154.00
2022-09-03T09:11:16.427Z,98154.00
2022-09-03T09:16:46.161Z,98144.00
2022-09-03T09:22:18.200Z,98156.00
2022-09-03T09:27:21.371Z,98157.00
2022-09-03T09:32:24.422Z,98152.00
2022-09-03T09:37:27.707Z,98139.00
2022-09-03T09:42:31.871Z,98143.00
2022-09-03T09:47:40.237Z,98141.00
2022-09-03T09:52:44.544Z,98132.00
2022-09-03T09:58:04.677Z,98129.00
2022-09-03T10:03:13.887Z,98127.00
2022-09-03T10:08:22.275Z,98128.00
2022-09-03T10:13:40.300Z,98125.00
2022-09-03T10:19:40.921Z,98119.00
2022-09-03T10:25:04.321Z,98134.00
2022-09-03T10:30:09.004Z,98124.00
2022-09-03T10:35:37.155Z,98114.00
2022-09-03T10:40:55.430Z,98127.00
2022-09-03T10:46:23.865Z,98124.00
2022-09-03T10:51:40.747Z,98111.00
2022-09-03T10:57:04.920Z,98118.00
2022-09-03T11:02:32.166Z,98109.00
2022-09-03T11:07:52.239Z,98106.00
2022-09-03T11:13:01.004Z,98113.00
2022-09-03T11:18:08.592Z,98103.00
2022-09-03T11:23:15.891Z,98096.00
2022-09-03T11:28:37.536Z,98092.00
2022-09-03T11:33:49.490Z,98087.00
2022-09-03T11:38:52.733Z,98086.00
2022-09-03T11:43:57.009Z,98083.00
2022-09-03T11:49:14.295Z,98082.00
2022-09-03T11:54:18.336Z,98084.00
2022-09-03T11:59:28.094Z,98079.00
2022-09-03T12:05:32.282Z,98071.00
2022-09-03T12:10:59.898Z,98066.00
2022-09-03T12:16:14.849Z,98072.00
2022-09-03T12:21:18.729Z,98076.00
2022-09-03T12:26:24.972Z,98067.00
2022-09-03T12:31:32.310Z,98064.00
2022-09-03T12:36:44.700Z,98057.00
2022-09-03T12:42:03.949Z,98055.00
2022-09-03T12:47:37.216Z,98042.00
2022-09-03T12:52:57.767Z,98051.00
2022-09-03T12:58:02.660Z,98041.00
2022-09-03T13:03:08.350Z,98044.00
2022-09-03T13:08:18.071Z,98036.00
2022-09-03T13:13:27.462Z,98033.00
2022-09-03T13:18:57.501Z,98029.00
2022-09-03T13:24:38.010Z,98029.00
2022-09-03T13:30:17.522Z,98010.00
2022-09-03T13:35:23.336Z,98018.00
2022-09-03T13:40:32.293Z,98018.00
2022-09-03T13:45:51.093Z,98017.00
2022-09-03T13:51:40.730Z,98008.00
2022-09-03T13:56:56.289Z,98010.00
2022-09-03T14:02:06.169Z,98006.00
2022-09-03T14:07:26.344Z,98012.00
2022-09-03T14:12:47.056Z,98003.00
2022-09-03T14:18:00.932Z,98002.00
2022-09-03T14:23:17.773Z,98009.00
2022-09-03T14:28:32.172Z,98005.00
2022-09-03T14:33:56.107Z,98003.00
2022-09-03T14:39:26.771Z,98000.00
2022-09-03T14:44:57.542Z,98010.00
2022-09-03T14:50:12.731Z,98009.00
2022-09-03T14:55:31.206Z,98004.00
2022-09-03T15:00:54.767Z,98006.00
2022-09-03T15:06:03.898Z,98004.00
2022-09-03T15:11:18.351Z,97994.00
2022-09-03T15:16:44.913Z,98005.00
2022-09-03T15:22:01.629Z,97998.00
2022-09-03T15:27:13.459Z,98001.00
2022-09-03T15:32:26.953Z,97994.00
2022-09-03T15:37:45.778Z,97995.00
2022-09-03T15:42:53.072Z,98009.00
2022-09-03T15:48:09.115Z,98007.00
2022-09-03T15:53:38.140Z,98014.00
2022-09-03T15:59:15.043Z,98009.00
2022-09-03T16:04:25.018Z,98008.00
2022-09-03T16:10:24.356Z,98007.00
2022-09-03T16:15:40.770Z,98002.00
2022-09-03T16:21:01.631Z,98004.00
2022-09-03T16:26:18.772Z,98005.00
2022-09-03T16:31:45.090Z,98007.00
2022-09-03T16:37:30.205Z,98009.00
2022-09-03T16:43:00.993Z,98015.00
2022-09-03T16:48:12.850Z,98015.00
2022-09-03T16:53:30.961Z,98032.00
2022-09-03T16:59:06.187Z,98026.00
2022-09-03T17:04:31.104Z,98028.00
2022-09-03T17:09:43.474Z,98032.00
2022-09-03T17:15:20.628Z,98022.00
2022-09-03T17:21:07.283Z,98033.00
2022-09-03T17:26:43.815Z,98029.00
2022-09-03T17:32:21.382Z,98035.00
2022-09-03T17:37:44.161Z,98042.00
2022-09-03T17:43:10.726Z,98050.00
2022-09-03T17:48:36.941Z,98056.00
2022-09-03T17:54:05.411Z,98049.00
2022-09-03T17:59:31.412Z,98057.00
2022-09-03T18:04:55.112Z,98057.00
2022-09-03T18:10:30.460Z,98067.00
2022-09-03T18:15:51.305Z,98074.00
2022-09-03T18:21:24.458Z,98078.00
2022-09-03T18:26:55.971Z,98084.00
2022-09-03T18:32:18.723Z,98088.00
2022-09-03T18:37:42.428Z,98093.00
2022-09-03T18:43:41.647Z,98085.00
2022-09-03T18:49:16.865Z,98096.00
2022-09-03T18:55:06.784Z,98097.00
2022-09-03T19:00:32.937Z,98100.00
2022-09-03T19:06:12.947Z,98107.00
2022-09-03T19:12:04.003Z,98106.00
2022-09-03T19:17:35.674Z,98111.00
2022-09-03T19:23:01.151Z,98114.00
2022-09-03T19:28:33.762Z,98115.00
2022-09-03T19:33:58.281Z,98108.00
2022-09-03T19:39:44.164Z,98114.00
2022-09-03T19:45:22.117Z,98113.00
2022-09-03T19:50:53.059Z,98106.00
2022-09-03T19:56:18.182Z,98104.00
2022-09-03T20:01:42.549Z,98104.00
2022-09-03T20:07:06.254Z,98105.00
2022-09-03T20:12:10.073Z,98114.00
2022-09-03T20:17:25.959Z,98122.00
2022-09-03T20:22:29.912Z,98121.00
2022-09-03T20:28:06.498Z,98132.00
2022-09-03T20:33:24.800Z,98131.00
2022-09-03T20:38:35.948Z,98128.00
2022-09-03T20:43:57.449Z,98131.00
2022-09-03T20:49:13.218Z,98139.00
2022-09-03T20:54:28.797Z,98141.00
2022-09-03T21:00:01.273Z,98132.00
2022-09-03T21:05:20.313Z,98127.00
2022-09-03T21:10:26.081Z,98133.00
2022-09-03T21:15:50.260Z,98136.00
2022-09-03T21:21:16.220Z,98129.00
2022-09-03T21:26:29.762Z,98139.00
2022-09-03T21:31:51.836Z,98143.00
2022-09-03T21:36:57.332Z,98146.00
2022-09-03T21:42:36.620Z,98151.00
2022-09-03T21:47:58.391Z,98157.00
2022-09-03T21:53:09.815Z,98151.00
2022-09-03T21:58:12.795Z,98153.00
2022-09-03T22:03:15.965Z,98154.00
2022-09-03T22:08:36.343Z,98156.00
2022-09-03T22:13:48.727Z,98156.00
2022-09-03T22:18:52.293Z,98153.00
2022-09-03T22:24:23.357Z,98150.00
2022-09-03T22:29:29.193Z,98156.00
2022-09-03T22:35:07.878Z,98157.00
2022-09-03T22:40:52.203Z,98155.00
2022-09-03T22:46:17.159Z,98158.00
2022-09-03T22:51:21.944Z,98161.00
2022-09-03T22:56:25.072Z,98164.00
2022-09-03T23:01:36.995Z,98165.00
2022-09-03T23:06:55.563Z,98162.00
2022-09-03T23:12:10.323Z,98163.00
2022-09-03T23:22:59.938Z,98171.00
2022-09-03T23:28:16.822Z,98167.00
2022-09-03T23:33:19.920Z,98165.00
2022-09-03T23:38:34.481Z,98172.00
2022-09-03T23:44:32.064Z,98171.00
2022-09-03T23:50:05.308Z,98174.00
2022-09-03T23:55:37.049Z,98168.00
